sensor_id;sensor_type;location;lat;lon;timestamp;noise_LAeq;noise_LA_min;noise_LA_max;noise_LA01;noise_LA95
40465;Laerm;30489;48.982;8.394;2023-03-20T00:01:12;38.59;35.66;41.06;;
40465;Laerm;30489;48.982;8.394;2023-03-20T00:03:23;38.62;35.94;40.98;;
40465;Laerm;30489;48.982;8.394;2023-03-20T00:05:33;38.63;35.94;40.71;;
40465;Laerm;30489;48.982;8.394;2023-03-20T00:07:43;38.61;35.36;40.80;;
40465;Laerm;30489;48.982;8.394;2023-03-20T00:15:31;38.62;36.20;40.62;;
40465;Laerm;30489;48.982;8.394;2023-03-20T00:17:43;38.60;35.94;40.80;;
40465;Laerm;30489;48.982;8.394;2023-03-20T00:19:53;38.61;35.66;40.71;;
40465;Laerm;30489;48.982;8.394;2023-03-20T00:22:03;38.57;35.94;40.62;;
40465;Laerm;30489;48.982;8.394;2023-03-20T00:24:14;38.56;36.20;40.89;;
40465;Laerm;30489;48.982;8.394;2023-03-20T00:26:25;38.56;35.94;40.62;;
40465;Laerm;30489;48.982;8.394;2023-03-20T00:28:40;38.58;35.66;40.53;;
40465;Laerm;30489;48.982;8.394;2023-03-20T00:30:51;38.58;35.94;40.80;;
40465;Laerm;30489;48.982;8.394;2023-03-20T00:33:02;38.61;36.20;40.53;;
40465;Laerm;30489;48.982;8.394;2023-03-20T00:35:19;38.64;36.20;40.98;;
40465;Laerm;30489;48.982;8.394;2023-03-20T00:37:30;38.69;35.94;41.06;;
40465;Laerm;30489;48.982;8.394;2023-03-20T00:39:40;38.62;35.94;40.88;;
40465;Laerm;30489;48.982;8.394;2023-03-20T00:41:54;38.58;35.66;40.53;;
40465;Laerm;30489;48.982;8.394;2023-03-20T00:46:25;38.58;35.66;40.71;;
40465;Laerm;30489;48.982;8.394;2023-03-20T00:48:36;38.55;35.94;40.53;;
40465;Laerm;30489;48.982;8.394;2023-03-20T00:50:46;38.56;36.20;40.71;;
40465;Laerm;30489;48.982;8.394;2023-03-20T00:52:58;38.56;35.94;40.33;;
40465;Laerm;30489;48.982;8.394;2023-03-20T00:55:08;38.56;35.94;40.71;;
40465;Laerm;30489;48.982;8.394;2023-03-20T00:57:20;38.56;36.20;40.43;;
40465;Laerm;30489;48.982;8.394;2023-03-20T00:59:33;38.56;35.59;40.53;;
40465;Laerm;30489;48.982;8.394;2023-03-20T01:01:45;38.54;35.66;40.53;;
40465;Laerm;30489;48.982;8.394;2023-03-20T01:03:55;38.55;35.94;40.62;;
40465;Laerm;30489;48.982;8.394;2023-03-20T01:06:07;38.57;35.94;40.98;;
40465;Laerm;30489;48.982;8.394;2023-03-20T01:08:22;38.55;36.20;40.98;;
40465;Laerm;30489;48.982;8.394;2023-03-20T01:10:33;38.53;35.59;40.53;;
40465;Laerm;30489;48.982;8.394;2023-03-20T01:12:43;38.57;35.94;40.62;;
40465;Laerm;30489;48.982;8.394;2023-03-20T01:14:55;38.54;35.04;40.53;;
40465;Laerm;30489;48.982;8.394;2023-03-20T01:17:17;38.52;35.94;40.62;;
40465;Laerm;30489;48.982;8.394;2023-03-20T01:19:28;38.52;35.66;40.43;;
40465;Laerm;30489;48.982;8.394;2023-03-20T01:21:38;38.52;36.20;40.43;;
40465;Laerm;30489;48.982;8.394;2023-03-20T01:23:49;38.55;35.66;40.62;;
40465;Laerm;30489;48.982;8.394;2023-03-20T01:25:59;38.56;35.66;40.71;;
40465;Laerm;30489;48.982;8.394;2023-03-20T01:28:14;38.56;35.94;40.62;;
40465;Laerm;30489;48.982;8.394;2023-03-20T01:30:31;38.54;35.94;40.62;;
40465;Laerm;30489;48.982;8.394;2023-03-20T01:32:43;38.54;36.20;40.80;;
40465;Laerm;30489;48.982;8.394;2023-03-20T01:34:55;38.53;35.94;40.71;;
40465;Laerm;30489;48.982;8.394;2023-03-20T01:37:08;38.53;35.94;40.53;;
40465;Laerm;30489;48.982;8.394;2023-03-20T01:39:21;38.54;36.20;40.43;;
40465;Laerm;30489;48.982;8.394;2023-03-20T01:41:33;38.53;35.94;40.71;;
40465;Laerm;30489;48.982;8.394;2023-03-20T01:43:44;38.52;35.94;40.89;;
40465;Laerm;30489;48.982;8.394;2023-03-20T01:48:20;38.52;35.94;40.43;;
40465;Laerm;30489;48.982;8.394;2023-03-20T01:50:32;38.51;35.94;40.43;;
40465;Laerm;30489;48.982;8.394;2023-03-20T01:52:43;38.51;35.36;40.89;;
40465;Laerm;30489;48.982;8.394;2023-03-20T01:54:53;38.53;35.94;40.71;;
40465;Laerm;30489;48.982;8.394;2023-03-20T01:57:19;38.55;35.86;40.71;;
40465;Laerm;30489;48.982;8.394;2023-03-20T01:59:32;38.54;36.20;40.71;;
40465;Laerm;30489;48.982;8.394;2023-03-20T02:01:44;38.54;35.66;40.62;;
40465;Laerm;30489;48.982;8.394;2023-03-20T02:03:54;38.51;35.94;40.89;;
40465;Laerm;30489;48.982;8.394;2023-03-20T02:06:05;38.50;35.04;41.06;;
40465;Laerm;30489;48.982;8.394;2023-03-20T02:10:30;38.54;36.20;40.62;;
40465;Laerm;30489;48.982;8.394;2023-03-20T02:12:40;38.55;36.20;40.53;;
40465;Laerm;30489;48.982;8.394;2023-03-20T02:14:51;38.51;35.94;40.62;;
40465;Laerm;30489;48.982;8.394;2023-03-20T02:17:05;38.52;35.94;40.71;;
40465;Laerm;30489;48.982;8.394;2023-03-20T02:19:43;38.54;35.94;40.53;;
40465;Laerm;30489;48.982;8.394;2023-03-20T02:40:34;38.51;35.94;40.62;;
40465;Laerm;30489;48.982;8.394;2023-03-20T02:42:57;38.54;35.66;40.43;;
40465;Laerm;30489;48.982;8.394;2023-03-20T02:45:13;38.54;35.36;40.62;;
40465;Laerm;30489;48.982;8.394;2023-03-20T02:47:27;38.54;35.94;40.53;;
40465;Laerm;30489;48.982;8.394;2023-03-20T02:56:29;38.55;35.94;40.53;;
40465;Laerm;30489;48.982;8.394;2023-03-20T03:00:59;38.57;35.94;40.53;;
40465;Laerm;30489;48.982;8.394;2023-03-20T03:03:30;38.53;35.94;40.80;;
40465;Laerm;30489;48.982;8.394;2023-03-20T03:05:45;38.56;35.36;40.43;;
40465;Laerm;30489;48.982;8.394;2023-03-20T03:07:58;38.55;36.20;40.62;;
40465;Laerm;30489;48.982;8.394;2023-03-20T03:10:14;38.56;35.94;40.62;;
40465;Laerm;30489;48.982;8.394;2023-03-20T03:12:30;38.56;35.36;40.43;;
40465;Laerm;30489;48.982;8.394;2023-03-20T03:14:46;38.55;35.94;40.53;;
40465;Laerm;30489;48.982;8.394;2023-03-20T03:16:57;38.55;35.66;40.71;;
40465;Laerm;30489;48.982;8.394;2023-03-20T03:21:46;38.55;35.94;40.53;;
40465;Laerm;30489;48.982;8.394;2023-03-20T03:23:57;38.54;35.94;40.43;;
40465;Laerm;30489;48.982;8.394;2023-03-20T03:26:09;38.53;35.66;40.89;;
40465;Laerm;30489;48.982;8.394;2023-03-20T03:28:30;38.57;36.20;40.53;;
40465;Laerm;30489;48.982;8.394;2023-03-20T03:30:45;38.56;36.20;40.62;;
40465;Laerm;30489;48.982;8.394;2023-03-20T03:35:26;38.56;35.94;40.33;;
40465;Laerm;30489;48.982;8.394;2023-03-20T03:39:48;38.55;36.20;40.71;;
40465;Laerm;30489;48.982;8.394;2023-03-20T03:46:31;38.55;36.20;40.62;;
40465;Laerm;30489;48.982;8.394;2023-03-20T03:48:46;38.56;35.66;40.43;;
40465;Laerm;30489;48.982;8.394;2023-03-20T03:50:59;38.55;36.20;40.62;;
40465;Laerm;30489;48.982;8.394;2023-03-20T03:53:11;38.55;35.36;40.62;;
40465;Laerm;30489;48.982;8.394;2023-03-20T03:55:23;38.55;35.94;40.43;;
40465;Laerm;30489;48.982;8.394;2023-03-20T03:57:41;38.56;36.10;40.43;;
40465;Laerm;30489;48.982;8.394;2023-03-20T03:59:53;38.56;35.36;40.88;;
40465;Laerm;30489;48.982;8.394;2023-03-20T04:02:04;38.56;35.94;40.62;;
40465;Laerm;30489;48.982;8.394;2023-03-20T04:04:17;38.55;35.94;40.62;;
40465;Laerm;30489;48.982;8.394;2023-03-20T04:06:28;38.56;36.20;40.53;;
40465;Laerm;30489;48.982;8.394;2023-03-20T04:08:39;38.57;35.94;40.53;;
40465;Laerm;30489;48.982;8.394;2023-03-20T04:10:50;38.58;35.94;40.62;;
40465;Laerm;30489;48.982;8.394;2023-03-20T04:13:07;38.63;36.20;40.71;;
40465;Laerm;30489;48.982;8.394;2023-03-20T04:15:18;38.58;35.66;41.06;;
40465;Laerm;30489;48.982;8.394;2023-03-20T04:17:30;38.58;35.66;40.53;;
40465;Laerm;30489;48.982;8.394;2023-03-20T04:19:40;38.56;36.20;40.88;;
40465;Laerm;30489;48.982;8.394;2023-03-20T04:21:50;38.56;35.36;40.71;;
40465;Laerm;30489;48.982;8.394;2023-03-20T04:24:01;38.58;36.20;40.53;;
40465;Laerm;30489;48.982;8.394;2023-03-20T04:26:11;38.56;36.20;40.43;;
40465;Laerm;30489;48.982;8.394;2023-03-20T04:28:21;38.54;35.94;40.43;;
40465;Laerm;30489;48.982;8.394;2023-03-20T04:30:31;38.54;36.20;40.71;;
40465;Laerm;30489;48.982;8.394;2023-03-20T04:32:42;38.54;35.36;40.43;;
40465;Laerm;30489;48.982;8.394;2023-03-20T04:34:52;38.55;35.94;40.53;;
40465;Laerm;30489;48.982;8.394;2023-03-20T04:37:02;38.53;35.94;40.43;;
40465;Laerm;30489;48.982;8.394;2023-03-20T04:39:14;38.54;35.94;40.53;;
40465;Laerm;30489;48.982;8.394;2023-03-20T04:41:25;38.52;35.94;40.43;;
40465;Laerm;30489;48.982;8.394;2023-03-20T04:43:35;38.55;36.20;40.62;;
40465;Laerm;30489;48.982;8.394;2023-03-20T04:45:45;38.54;35.66;40.53;;
40465;Laerm;30489;48.982;8.394;2023-03-20T04:47:56;38.58;35.94;40.98;;
40465;Laerm;30489;48.982;8.394;2023-03-20T04:50:06;38.58;35.36;40.80;;
40465;Laerm;30489;48.982;8.394;2023-03-20T04:52:16;38.58;36.20;40.80;;
40465;Laerm;30489;48.982;8.394;2023-03-20T04:54:26;38.59;35.94;40.62;;
40465;Laerm;30489;48.982;8.394;2023-03-20T04:56:37;38.55;35.36;40.62;;
40465;Laerm;30489;48.982;8.394;2023-03-20T04:58:47;38.60;35.94;40.62;;
40465;Laerm;30489;48.982;8.394;2023-03-20T05:00:57;38.57;35.94;40.62;;
40465;Laerm;30489;48.982;8.394;2023-03-20T05:03:07;38.60;36.10;40.98;;
40465;Laerm;30489;48.982;8.394;2023-03-20T05:05:18;38.61;35.66;42.22;;
40465;Laerm;30489;48.982;8.394;2023-03-20T05:07:28;38.59;35.66;41.22;;
40465;Laerm;30489;48.982;8.394;2023-03-20T05:09:38;38.58;36.20;40.53;;
40465;Laerm;30489;48.982;8.394;2023-03-20T05:11:48;38.56;35.36;40.53;;
40465;Laerm;30489;48.982;8.394;2023-03-20T05:13:59;38.58;36.20;40.71;;
40465;Laerm;30489;48.982;8.394;2023-03-20T05:16:09;38.60;36.20;40.43;;
40465;Laerm;30489;48.982;8.394;2023-03-20T05:18:20;38.58;35.94;40.43;;
40465;Laerm;30489;48.982;8.394;2023-03-20T05:20:30;38.58;35.94;41.82;;
40465;Laerm;30489;48.982;8.394;2023-03-20T05:22:41;38.61;36.20;40.62;;
40465;Laerm;30489;48.982;8.394;2023-03-20T05:24:51;38.62;36.20;40.43;;
40465;Laerm;30489;48.982;8.394;2023-03-20T05:27:02;38.59;35.94;40.53;;
40465;Laerm;30489;48.982;8.394;2023-03-20T05:29:12;38.60;35.66;40.43;;
40465;Laerm;30489;48.982;8.394;2023-03-20T05:31:24;38.61;35.94;40.53;;
40465;Laerm;30489;48.982;8.394;2023-03-20T05:36:54;38.63;36.20;42.16;;
40465;Laerm;30489;48.982;8.394;2023-03-20T05:39:27;38.63;35.66;40.71;;
40465;Laerm;30489;48.982;8.394;2023-03-20T05:41:48;38.62;36.20;40.80;;
40465;Laerm;30489;48.982;8.394;2023-03-20T05:44:01;38.63;36.20;40.62;;
40465;Laerm;30489;48.982;8.394;2023-03-20T05:46:12;38.62;36.20;40.98;;
40465;Laerm;30489;48.982;8.394;2023-03-20T05:48:22;38.60;35.66;40.71;;
40465;Laerm;30489;48.982;8.394;2023-03-20T05:50:32;38.62;36.20;40.71;;
40465;Laerm;30489;48.982;8.394;2023-03-20T05:52:45;38.60;35.66;40.89;;
40465;Laerm;30489;48.982;8.394;2023-03-20T05:54:55;38.62;36.20;40.62;;
40465;Laerm;30489;48.982;8.394;2023-03-20T05:57:06;38.63;35.94;40.80;;
40465;Laerm;30489;48.982;8.394;2023-03-20T05:59:16;38.64;36.20;40.71;;
40465;Laerm;30489;48.982;8.394;2023-03-20T06:01:26;38.64;36.45;40.53;;
40465;Laerm;30489;48.982;8.394;2023-03-20T06:03:36;38.66;36.45;40.71;;
40465;Laerm;30489;48.982;8.394;2023-03-20T06:05:47;38.64;36.20;40.53;;
40465;Laerm;30489;48.982;8.394;2023-03-20T06:07:57;38.64;36.20;40.43;;
40465;Laerm;30489;48.982;8.394;2023-03-20T06:10:07;38.61;36.45;40.89;;
40465;Laerm;30489;48.982;8.394;2023-03-20T06:12:18;38.60;35.94;40.62;;
40465;Laerm;30489;48.982;8.394;2023-03-20T06:14:28;38.64;35.66;40.80;;
40465;Laerm;30489;48.982;8.394;2023-03-20T06:16:38;38.63;36.20;40.62;;
40465;Laerm;30489;48.982;8.394;2023-03-20T06:18:49;38.65;35.36;40.62;;
40465;Laerm;30489;48.982;8.394;2023-03-20T06:20:59;38.65;36.20;40.89;;
40465;Laerm;30489;48.982;8.394;2023-03-20T06:23:11;38.65;36.10;40.71;;
40465;Laerm;30489;48.982;8.394;2023-03-20T06:25:21;38.65;36.20;40.36;;
40465;Laerm;30489;48.982;8.394;2023-03-20T06:27:31;38.69;35.94;40.53;;
40465;Laerm;30489;48.982;8.394;2023-03-20T06:29:44;38.66;35.94;40.62;;
40465;Laerm;30489;48.982;8.394;2023-03-20T06:31:55;38.65;36.20;40.43;;
40465;Laerm;30489;48.982;8.394;2023-03-20T06:34:11;38.65;36.20;40.71;;
40465;Laerm;30489;48.982;8.394;2023-03-20T06:36:42;38.67;35.94;40.71;;
40465;Laerm;30489;48.982;8.394;2023-03-20T06:38:54;38.70;36.20;40.98;;
40465;Laerm;30489;48.982;8.394;2023-03-20T06:41:04;38.70;36.20;40.62;;
40465;Laerm;30489;48.982;8.394;2023-03-20T06:43:15;38.68;35.94;40.62;;
40465;Laerm;30489;48.982;8.394;2023-03-20T06:45:26;38.70;36.69;40.43;;
40465;Laerm;30489;48.982;8.394;2023-03-20T06:47:36;38.72;36.45;41.06;;
40465;Laerm;30489;48.982;8.394;2023-03-20T06:49:46;38.74;36.20;40.71;;
40465;Laerm;30489;48.982;8.394;2023-03-20T06:51:57;38.73;36.20;40.80;;
40465;Laerm;30489;48.982;8.394;2023-03-20T06:54:08;38.69;35.94;40.53;;
40465;Laerm;30489;48.982;8.394;2023-03-20T06:56:18;38.71;35.94;40.89;;
40465;Laerm;30489;48.982;8.394;2023-03-20T06:58:28;38.73;35.94;40.89;;
40465;Laerm;30489;48.982;8.394;2023-03-20T07:00:39;38.77;35.94;40.62;;
40465;Laerm;30489;48.982;8.394;2023-03-20T07:02:49;38.76;36.20;40.71;;
40465;Laerm;30489;48.982;8.394;2023-03-20T07:04:59;38.80;36.20;40.63;;
40465;Laerm;30489;48.982;8.394;2023-03-20T07:07:10;38.81;35.94;40.98;;
40465;Laerm;30489;48.982;8.394;2023-03-20T07:09:20;38.80;36.45;40.53;;
40465;Laerm;30489;48.982;8.394;2023-03-20T07:11:34;38.80;36.45;40.71;;
40465;Laerm;30489;48.982;8.394;2023-03-20T07:13:49;38.81;36.45;40.80;;
40465;Laerm;30489;48.982;8.394;2023-03-20T07:16:03;38.80;36.20;40.80;;
40465;Laerm;30489;48.982;8.394;2023-03-20T07:18:13;38.79;36.45;40.71;;
40465;Laerm;30489;48.982;8.394;2023-03-20T07:20:31;38.79;36.20;40.98;;
40465;Laerm;30489;48.982;8.394;2023-03-20T19:07:17;41.38;39.92;42.82;;
40465;Laerm;30489;48.982;8.394;2023-03-20T19:09:27;41.32;40.13;42.76;;
40465;Laerm;30489;48.982;8.394;2023-03-20T19:11:37;41.30;40.13;45.01;;
40465;Laerm;30489;48.982;8.394;2023-03-20T19:13:49;41.29;40.03;42.76;;
40465;Laerm;30489;48.982;8.394;2023-03-20T19:16:00;41.30;40.03;42.47;;
40465;Laerm;30489;48.982;8.394;2023-03-20T19:18:17;41.26;39.70;42.76;;
40465;Laerm;30489;48.982;8.394;2023-03-20T19:20:37;41.25;39.92;42.59;;
40465;Laerm;30489;48.982;8.394;2023-03-20T19:22:49;41.25;39.70;43.09;;
40465;Laerm;30489;48.982;8.394;2023-03-20T19:24:59;41.25;39.81;42.41;;
40465;Laerm;30489;48.982;8.394;2023-03-20T19:27:12;41.22;39.92;42.71;;
40465;Laerm;30489;48.982;8.394;2023-03-20T19:29:23;41.17;39.81;42.41;;
40465;Laerm;30489;48.982;8.394;2023-03-20T19:31:33;41.16;39.92;42.76;;
40465;Laerm;30489;48.982;8.394;2023-03-20T19:33:44;41.11;39.89;42.35;;
40465;Laerm;30489;48.982;8.394;2023-03-20T19:35:54;41.13;39.92;42.22;;
40465;Laerm;30489;48.982;8.394;2023-03-20T19:38:04;41.13;39.70;42.29;;
40465;Laerm;30489;48.982;8.394;2023-03-20T19:42:35;41.02;39.58;42.22;;
40465;Laerm;30489;48.982;8.394;2023-03-20T19:44:45;41.01;39.46;42.65;;
40465;Laerm;30489;48.982;8.394;2023-03-20T19:46:55;40.96;39.58;42.35;;
40465;Laerm;30489;48.982;8.394;2023-03-20T19:49:23;40.97;39.34;42.74;;
40465;Laerm;30489;48.982;8.394;2023-03-20T19:51:34;40.93;39.46;42.53;;
40465;Laerm;30489;48.982;8.394;2023-03-20T19:53:44;40.96;39.58;42.35;;
40465;Laerm;30489;48.982;8.394;2023-03-20T19:55:55;40.97;39.46;42.35;;
40465;Laerm;30489;48.982;8.394;2023-03-20T19:58:05;40.98;39.46;42.24;;
40465;Laerm;30489;48.982;8.394;2023-03-20T20:00:16;40.96;39.58;42.35;;
40465;Laerm;30489;48.982;8.394;2023-03-20T20:02:26;40.95;39.58;42.16;;
40465;Laerm;30489;48.982;8.394;2023-03-20T20:04:36;40.93;39.34;42.22;;
40465;Laerm;30489;48.982;8.394;2023-03-20T20:06:47;40.92;39.34;42.09;;
40465;Laerm;30489;48.982;8.394;2023-03-20T20:08:58;40.93;39.46;42.16;;
40465;Laerm;30489;48.982;8.394;2023-03-20T20:11:08;40.95;39.70;42.22;;
40465;Laerm;30489;48.982;8.394;2023-03-20T20:13:22;40.95;39.58;42.29;;
40465;Laerm;30489;48.982;8.394;2023-03-20T20:15:32;40.91;39.46;42.09;;
40465;Laerm;30489;48.982;8.394;2023-03-20T20:17:44;40.90;39.46;42.29;;
40465;Laerm;30489;48.982;8.394;2023-03-20T20:19:54;40.87;39.46;42.03;;
40465;Laerm;30489;48.982;8.394;2023-03-20T20:22:05;40.86;39.46;42.16;;
40465;Laerm;30489;48.982;8.394;2023-03-20T20:24:15;40.74;39.34;41.89;;
40465;Laerm;30489;48.982;8.394;2023-03-20T20:26:25;40.75;39.21;41.89;;
40465;Laerm;30489;48.982;8.394;2023-03-20T20:28:35;40.70;38.81;41.89;;
40465;Laerm;30489;48.982;8.394;2023-03-20T20:30:47;40.71;39.21;42.16;;
40465;Laerm;30489;48.982;8.394;2023-03-20T20:32:58;40.66;39.08;41.96;;
40465;Laerm;30489;48.982;8.394;2023-03-20T20:35:09;40.55;38.95;42.03;;
40465;Laerm;30489;48.982;8.394;2023-03-20T20:37:22;40.53;39.08;42.03;;
40465;Laerm;30489;48.982;8.394;2023-03-20T20:39:33;40.46;38.81;41.75;;
40465;Laerm;30489;48.982;8.394;2023-03-20T20:41:43;40.45;38.67;41.75;;
40465;Laerm;30489;48.982;8.394;2023-03-20T20:43:56;40.41;38.95;41.75;;
40465;Laerm;30489;48.982;8.394;2023-03-20T20:46:06;40.39;38.37;41.68;;
40465;Laerm;30489;48.982;8.394;2023-03-20T20:48:16;40.39;38.81;41.89;;
40465;Laerm;30489;48.982;8.394;2023-03-20T20:50:28;40.41;38.95;41.68;;
40465;Laerm;30489;48.982;8.394;2023-03-20T20:52:39;40.38;39.08;41.75;;
40465;Laerm;30489;48.982;8.394;2023-03-20T20:54:51;40.39;38.67;41.61;;
40465;Laerm;30489;48.982;8.394;2023-03-20T20:57:01;40.38;38.67;41.89;;
40465;Laerm;30489;48.982;8.394;2023-03-20T20:59:11;40.37;38.81;41.68;;
40465;Laerm;30489;48.982;8.394;2023-03-20T21:01:22;40.35;38.67;41.96;;
40465;Laerm;30489;48.982;8.394;2023-03-20T21:03:32;40.31;38.67;41.68;;
40465;Laerm;30489;48.982;8.394;2023-03-20T21:05:43;40.34;38.81;41.96;;
40465;Laerm;30489;48.982;8.394;2023-03-20T21:07:54;40.32;38.67;41.68;;
40465;Laerm;30489;48.982;8.394;2023-03-20T21:10:05;40.27;38.67;42.88;;
40465;Laerm;30489;48.982;8.394;2023-03-20T21:12:15;40.27;38.52;42.42;;
40465;Laerm;30489;48.982;8.394;2023-03-20T21:14:26;40.25;38.81;41.75;;
40465;Laerm;30489;48.982;8.394;2023-03-20T21:16:36;40.25;38.52;41.53;;
40465;Laerm;30489;48.982;8.394;2023-03-20T21:18:46;40.26;38.81;43.68;;
40465;Laerm;30489;48.982;8.394;2023-03-20T21:21:07;40.27;38.67;41.53;;
40465;Laerm;30489;48.982;8.394;2023-03-20T21:23:18;40.27;38.52;41.75;;
40465;Laerm;30489;48.982;8.394;2023-03-20T21:25:28;40.26;38.81;41.61;;
40465;Laerm;30489;48.982;8.394;2023-03-20T21:27:38;40.23;38.52;41.61;;
40465;Laerm;30489;48.982;8.394;2023-03-20T21:29:49;40.23;38.81;41.75;;
40465;Laerm;30489;48.982;8.394;2023-03-20T21:31:59;40.24;38.52;41.53;;
40465;Laerm;30489;48.982;8.394;2023-03-20T21:34:10;40.28;38.37;41.53;;
40465;Laerm;30489;48.982;8.394;2023-03-20T21:36:21;40.31;38.67;41.82;;
40465;Laerm;30489;48.982;8.394;2023-03-20T21:38:31;40.24;38.52;41.68;;
40465;Laerm;30489;48.982;8.394;2023-03-20T21:40:43;40.15;38.67;41.46;;
40465;Laerm;30489;48.982;8.394;2023-03-20T21:42:53;40.10;38.37;41.38;;
40465;Laerm;30489;48.982;8.394;2023-03-20T21:45:06;40.09;38.52;41.46;;
40465;Laerm;30489;48.982;8.394;2023-03-20T21:47:17;40.09;38.52;41.46;;
40465;Laerm;30489;48.982;8.394;2023-03-20T21:49:27;40.05;38.52;41.53;;
40465;Laerm;30489;48.982;8.394;2023-03-20T21:51:37;40.06;38.21;41.68;;
40465;Laerm;30489;48.982;8.394;2023-03-20T21:53:47;40.04;38.21;41.46;;
40465;Laerm;30489;48.982;8.394;2023-03-20T21:55:57;40.02;38.52;41.46;;
40465;Laerm;30489;48.982;8.394;2023-03-20T21:58:08;40.00;38.37;41.38;;
40465;Laerm;30489;48.982;8.394;2023-03-20T22:00:18;40.03;38.37;41.61;;
40465;Laerm;30489;48.982;8.394;2023-03-20T22:02:28;40.04;38.37;41.30;;
40465;Laerm;30489;48.982;8.394;2023-03-20T22:04:39;40.04;38.37;41.38;;
40465;Laerm;30489;48.982;8.394;2023-03-20T22:06:49;40.02;38.21;41.61;;
40465;Laerm;30489;48.982;8.394;2023-03-20T22:08:59;39.99;37.88;41.61;;
40465;Laerm;30489;48.982;8.394;2023-03-20T22:11:10;39.97;37.70;41.38;;
40465;Laerm;30489;48.982;8.394;2023-03-20T22:13:20;39.97;38.21;41.30;;
40465;Laerm;30489;48.982;8.394;2023-03-20T22:15:31;40.00;38.37;41.46;;
40465;Laerm;30489;48.982;8.394;2023-03-20T22:20:17;40.01;38.37;41.38;;
40465;Laerm;30489;48.982;8.394;2023-03-20T22:22:27;39.99;38.18;41.75;;
40465;Laerm;30489;48.982;8.394;2023-03-20T22:24:39;39.97;38.37;41.46;;
40465;Laerm;30489;48.982;8.394;2023-03-20T22:26:49;39.96;38.37;41.46;;
40465;Laerm;30489;48.982;8.394;2023-03-20T22:29:00;39.98;38.05;41.53;;
40465;Laerm;30489;48.982;8.394;2023-03-20T22:31:13;39.98;37.70;41.38;;
40465;Laerm;30489;48.982;8.394;2023-03-20T22:33:24;39.99;38.02;41.46;;
40465;Laerm;30489;48.982;8.394;2023-03-20T22:35:39;39.93;38.21;41.46;;
40465;Laerm;30489;48.982;8.394;2023-03-20T22:37:50;39.91;38.32;41.38;;
40465;Laerm;30489;48.982;8.394;2023-03-20T22:40:00;39.94;38.37;42.16;;
40465;Laerm;30489;48.982;8.394;2023-03-20T22:46:46;39.90;37.70;41.53;;
40465;Laerm;30489;48.982;8.394;2023-03-20T22:48:58;39.95;38.21;42.65;;
40465;Laerm;30489;48.982;8.394;2023-03-20T22:51:08;39.92;38.05;41.53;;
40465;Laerm;30489;48.982;8.394;2023-03-20T22:53:18;39.87;38.05;41.38;;
40465;Laerm;30489;48.982;8.394;2023-03-20T22:55:28;39.87;38.05;42.88;;
40465;Laerm;30489;48.982;8.394;2023-03-20T22:57:57;39.89;38.05;41.38;;
40465;Laerm;30489;48.982;8.394;2023-03-20T23:00:08;39.89;38.21;41.53;;
40465;Laerm;30489;48.982;8.394;2023-03-20T23:02:19;39.91;37.88;41.30;;
40465;Laerm;30489;48.982;8.394;2023-03-20T23:04:30;39.95;38.21;41.53;;
40465;Laerm;30489;48.982;8.394;2023-03-20T23:06:40;39.93;38.37;41.38;;
40465;Laerm;30489;48.982;8.394;2023-03-20T23:08:51;39.94;38.05;41.38;;
40465;Laerm;30489;48.982;8.394;2023-03-20T23:11:04;39.94;37.70;41.46;;
40465;Laerm;30489;48.982;8.394;2023-03-20T23:13:16;39.98;38.37;41.41;;
40465;Laerm;30489;48.982;8.394;2023-03-20T23:15:27;39.99;38.21;41.38;;
40465;Laerm;30489;48.982;8.394;2023-03-20T23:17:37;39.93;38.47;41.68;;
40465;Laerm;30489;48.982;8.394;2023-03-20T23:22:26;39.98;38.05;41.68;;
40465;Laerm;30489;48.982;8.394;2023-03-20T23:24:37;40.02;38.21;41.38;;
40465;Laerm;30489;48.982;8.394;2023-03-20T23:26:48;39.99;38.37;41.41;;
40465;Laerm;30489;48.982;8.394;2023-03-20T23:28:59;39.93;38.05;41.30;;
40465;Laerm;30489;48.982;8.394;2023-03-20T23:31:11;39.91;38.21;41.30;;
40465;Laerm;30489;48.982;8.394;2023-03-20T23:33:24;39.89;37.88;42.22;;
40465;Laerm;30489;48.982;8.394;2023-03-20T23:35:34;39.90;38.05;41.53;;
40465;Laerm;30489;48.982;8.394;2023-03-20T23:37:44;39.88;38.21;41.41;;
40465;Laerm;30489;48.982;8.394;2023-03-20T23:39:54;39.85;38.05;41.53;;
40465;Laerm;30489;48.982;8.394;2023-03-20T23:42:05;39.84;38.05;41.22;;
40465;Laerm;30489;48.982;8.394;2023-03-20T23:44:15;39.82;37.70;41.22;;
40465;Laerm;30489;48.982;8.394;2023-03-20T23:46:25;39.81;38.05;42.41;;
40465;Laerm;30489;48.982;8.394;2023-03-20T23:48:36;39.77;37.70;41.22;;
40465;Laerm;30489;48.982;8.394;2023-03-20T23:50:48;39.72;37.70;41.22;;
40465;Laerm;30489;48.982;8.394;2023-03-20T23:52:58;39.69;37.88;41.46;;
40465;Laerm;30489;48.982;8.394;2023-03-20T23:55:09;39.64;37.88;41.38;;
40465;Laerm;30489;48.982;8.394;2023-03-20T23:57:19;39.64;37.70;41.14;;
40465;Laerm;30489;48.982;8.394;2023-03-20T23:59:30;39.68;37.87;43.49;;
